createdAt,value
2018-09-29T00:00:10.224Z,100832.84
2018-09-29T00:01:45.784Z,100827.16
2018-09-29T00:03:21.406Z,100832.52
2018-09-29T00:04:56.880Z,100832.97
2018-09-29T00:06:32.351Z,100840.01
2018-09-29T00:08:08.173Z,100834.81
2018-09-29T00:09:44.119Z,100837.77
2018-09-29T00:11:19.724Z,100840.46
2018-09-29T00:12:55.225Z,100840.78
2018-09-29T00:14:31.006Z,100837.64
2018-09-29T00:16:06.895Z,100834.16
2018-09-29T00:17:42.426Z,100830.76
2018-09-29T00:19:18.120Z,100830.51
2018-09-29T00:20:53.666Z,100831.80
2018-09-29T00:22:29.143Z,100830.75
2018-09-29T00:24:04.791Z,100832.30
2018-09-29T00:25:40.335Z,100829.42
2018-09-29T00:27:15.794Z,100828.30
2018-09-29T00:28:51.317Z,100842.23
2018-09-29T00:30:26.866Z,100831.92
2018-09-29T00:32:02.390Z,100841.22
2018-09-29T00:33:38.317Z,100841.36
2018-09-29T00:35:13.830Z,100839.27
2018-09-29T00:36:49.330Z,100840.17
2018-09-29T00:38:24.868Z,100845.49
2018-09-29T00:40:00.341Z,100852.48
2018-09-29T00:41:35.908Z,100848.97
2018-09-29T00:43:11.382Z,100850.48
2018-09-29T00:44:47.356Z,100854.41
2018-09-29T00:46:22.934Z,100850.86
2018-09-29T00:47:58.427Z,100854.20
2018-09-29T00:49:34.004Z,100849.72
2018-09-29T00:51:09.682Z,100845.67
2018-09-29T00:52:45.174Z,100849.09
2018-09-29T00:54:20.895Z,100845.62
2018-09-29T00:55:56.416Z,100851.18
2018-09-29T00:57:32.140Z,100849.09
2018-09-29T00:59:07.576Z,100855.30
2018-09-29T01:00:43.042Z,100848.88
2018-09-29T01:02:18.731Z,100848.43
2018-09-29T01:03:54.275Z,100854.25
2018-09-29T01:05:29.766Z,100850.53
2018-09-29T01:07:05.322Z,100854.27
2018-09-29T01:08:40.916Z,100850.53
2018-09-29T01:10:17.410Z,100848.56
2018-09-29T01:11:52.915Z,100853.24
2018-09-29T01:13:28.469Z,100856.03
2018-09-29T01:15:03.954Z,100849.61
2018-09-29T01:16:39.437Z,100849.09
2018-09-29T01:18:15.916Z,100849.34
2018-09-29T01:19:51.472Z,100849.49
2018-09-29T01:21:27.088Z,100842.95
2018-09-29T01:23:02.612Z,100847.05
2018-09-29T01:24:38.130Z,100848.84
2018-09-29T01:26:13.612Z,100857.02
2018-09-29T01:27:49.138Z,100852.94
2018-09-29T01:29:24.674Z,100850.70
2018-09-29T01:31:00.160Z,100855.39
2018-09-29T01:32:35.688Z,100776.45
2018-09-29T01:34:11.323Z,100858.75
2018-09-29T01:35:46.870Z,100863.41
2018-09-29T01:37:22.415Z,100868.12
2018-09-29T01:38:57.862Z,100868.91
2018-09-29T01:40:33.405Z,100870.70
2018-09-29T01:42:08.939Z,100865.39
2018-09-29T01:43:44.464Z,100866.58
2018-09-29T01:45:20.123Z,100881.28
2018-09-29T01:46:55.730Z,100870.78
2018-09-29T01:48:31.219Z,100866.03
2018-09-29T01:50:06.718Z,100868.76
2018-09-29T01:51:42.263Z,100868.58
2018-09-29T01:53:17.774Z,100872.13
2018-09-29T01:54:53.331Z,100874.63
2018-09-29T01:56:29.204Z,100870.82
2018-09-29T01:58:08.398Z,100869.20
2018-09-29T01:59:43.887Z,100882.89
2018-09-29T02:01:19.356Z,100868.65
2018-09-29T02:02:55.091Z,100870.52
2018-09-29T02:04:30.649Z,100870.93
2018-09-29T02:06:06.697Z,100867.67
2018-09-29T02:07:42.321Z,100870.74
2018-09-29T02:09:17.877Z,100868.23
2018-09-29T02:10:53.384Z,100871.89
2018-09-29T02:12:28.930Z,100872.00
2018-09-29T02:14:04.648Z,100870.25
2018-09-29T02:15:40.142Z,100871.64
2018-09-29T02:17:15.594Z,100868.46
2018-09-29T02:18:51.296Z,100868.50
2018-09-29T02:20:26.957Z,100871.30
2018-09-29T02:22:02.524Z,100866.59
2018-09-29T02:23:38.048Z,100864.72
2018-09-29T02:25:13.472Z,100867.94
2018-09-29T02:26:48.964Z,100866.51
2018-09-29T02:28:24.419Z,100867.97
2018-09-29T02:29:59.895Z,100864.98
2018-09-29T02:31:35.452Z,100859.86
2018-09-29T02:33:10.957Z,100858.73
2018-09-29T02:34:46.466Z,100866.53
2018-09-29T02:36:21.989Z,100866.67
2018-09-29T02:37:57.454Z,100860.81
2018-09-29T02:39:32.944Z,100864.05
2018-09-29T02:41:08.419Z,100863.05
2018-09-29T02:42:43.886Z,100809.38
2018-09-29T02:44:19.758Z,100864.21
2018-09-29T02:45:55.305Z,100862.84
2018-09-29T02:47:30.839Z,100864.23
2018-09-29T02:49:06.291Z,100865.35
2018-09-29T02:50:41.868Z,100861.28
2018-09-29T02:52:17.423Z,100863.73
2018-09-29T02:53:52.962Z,100875.05
2018-09-29T02:55:28.431Z,100875.02
2018-09-29T02:57:03.927Z,100875.21
2018-09-29T02:58:39.852Z,100878.69
2018-09-29T03:00:15.312Z,100871.70
2018-09-29T03:01:50.789Z,100872.15
2018-09-29T03:03:26.303Z,100876.08
2018-09-29T03:05:01.772Z,100880.04
2018-09-29T03:06:37.499Z,100884.30
2018-09-29T03:08:13.238Z,100882.06
2018-09-29T03:09:49.044Z,100887.30
2018-09-29T03:11:24.606Z,100893.12
2018-09-29T03:13:00.157Z,100893.55
2018-09-29T03:14:35.604Z,100885.23
2018-09-29T03:16:11.114Z,100891.11
2018-09-29T03:17:46.619Z,100892.31
2018-09-29T03:19:22.162Z,100892.52
2018-09-29T03:20:57.661Z,100887.87
2018-09-29T03:22:33.118Z,100885.84
2018-09-29T03:24:08.626Z,100893.59
2018-09-29T03:25:44.085Z,100883.41
2018-09-29T03:27:19.624Z,100890.59
2018-09-29T03:28:55.144Z,100890.32
2018-09-29T03:30:30.629Z,100885.92
2018-09-29T03:32:06.326Z,100886.83
2018-09-29T03:33:41.846Z,100888.77
2018-09-29T03:35:17.327Z,100884.32
2018-09-29T03:36:52.817Z,100883.78
2018-09-29T03:38:28.350Z,100886.16
2018-09-29T03:40:03.816Z,100882.91
2018-09-29T03:41:39.573Z,100883.43
2018-09-29T03:43:15.044Z,100894.06
2018-09-29T03:44:50.587Z,100896.33
2018-09-29T03:46:26.321Z,100896.33
2018-09-29T03:48:01.853Z,100892.95
2018-09-29T03:49:37.360Z,100904.63
2018-09-29T03:51:12.915Z,100903.89
2018-09-29T03:52:48.330Z,100902.14
2018-09-29T03:54:23.836Z,100896.14
2018-09-29T03:55:59.331Z,100902.16
2018-09-29T03:57:34.925Z,100901.11
2018-09-29T03:59:10.428Z,100898.79
2018-09-29T04:00:45.985Z,100906.03
2018-09-29T04:02:21.593Z,100901.98
2018-09-29T04:03:57.149Z,100915.47
2018-09-29T04:05:32.680Z,100912.16
2018-09-29T04:07:08.186Z,100910.70
2018-09-29T04:08:43.890Z,100915.78
2018-09-29T04:10:19.363Z,100902.15
2018-09-29T04:11:54.809Z,100909.57
2018-09-29T04:13:30.336Z,100911.29
2018-09-29T04:15:06.217Z,100925.94
2018-09-29T04:16:41.672Z,100918.17
2018-09-29T04:18:17.168Z,100916.86
2018-09-29T04:19:53.101Z,100923.69
2018-09-29T04:21:33.022Z,100930.44
2018-09-29T04:23:08.543Z,100924.02
2018-09-29T04:24:44.057Z,100886.38
2018-09-29T04:26:19.593Z,100923.58
2018-09-29T04:27:55.306Z,100931.95
2018-09-29T04:29:30.883Z,100934.38
2018-09-29T04:31:06.425Z,100930.56
2018-09-29T04:32:41.950Z,100927.05
2018-09-29T04:34:17.434Z,100927.21
2018-09-29T04:35:53.060Z,100935.92
2018-09-29T04:37:28.615Z,100933.77
2018-09-29T04:39:05.401Z,100932.21
2018-09-29T04:40:40.929Z,100929.16
2018-09-29T04:42:16.616Z,100938.39
2018-09-29T04:43:52.229Z,100938.56
2018-09-29T04:45:27.836Z,100941.53
2018-09-29T04:47:03.351Z,100938.41
2018-09-29T04:48:38.854Z,100933.08
2018-09-29T04:50:14.365Z,100935.52
2018-09-29T04:51:49.913Z,100936.20
2018-09-29T04:53:25.433Z,100932.97
2018-09-29T04:55:01.015Z,100937.44
2018-09-29T04:56:36.523Z,100936.72
2018-09-29T04:58:12.007Z,100938.81
2018-09-29T04:59:47.761Z,100942.45
2018-09-29T05:01:23.323Z,100941.97
2018-09-29T05:02:59.351Z,100942.86
2018-09-29T05:04:34.881Z,100940.41
2018-09-29T05:06:10.336Z,100939.96
2018-09-29T05:07:45.838Z,100944.43
2018-09-29T05:09:21.300Z,100946.58
2018-09-29T05:10:56.990Z,100943.86
2018-09-29T05:12:32.585Z,100951.55
2018-09-29T05:14:08.109Z,100952.91
2018-09-29T05:15:43.593Z,100950.69
2018-09-29T05:17:19.136Z,100953.55
2018-09-29T05:18:54.968Z,100951.80
2018-09-29T05:20:30.495Z,100955.91
2018-09-29T05:22:06.227Z,100961.58
2018-09-29T05:23:41.989Z,100958.14
2018-09-29T05:25:17.613Z,100758.81
2018-09-29T05:26:53.171Z,100966.29
2018-09-29T05:28:28.717Z,100961.48
2018-09-29T05:30:06.073Z,100966.80
2018-09-29T05:31:41.532Z,100967.56
2018-09-29T05:33:17.181Z,100969.31
2018-09-29T05:34:52.798Z,100974.34
2018-09-29T05:36:28.541Z,100978.14
2018-09-29T05:38:04.080Z,100975.74
2018-09-29T05:39:39.821Z,100979.69
2018-09-29T05:41:15.267Z,100983.05
2018-09-29T05:42:51.536Z,100988.25
2018-09-29T05:44:27.281Z,100982.61
2018-09-29T05:46:02.900Z,100983.92
2018-09-29T05:47:38.468Z,100974.59
2018-09-29T05:49:14.088Z,100983.85
2018-09-29T05:50:50.390Z,100986.59
2018-09-29T05:52:25.937Z,100991.28
2018-09-29T05:54:01.734Z,100989.89
2018-09-29T05:55:37.188Z,100993.66
2018-09-29T05:57:12.717Z,100993.20
2018-09-29T05:58:48.250Z,100998.41
2018-09-29T06:00:23.797Z,100993.73
2018-09-29T06:01:59.240Z,101000.73
2018-09-29T06:03:34.980Z,100995.27
2018-09-29T06:05:21.856Z,100945.06
2018-09-29T06:06:57.914Z,100992.91
2018-09-29T06:08:33.494Z,100995.64
2018-09-29T06:10:09.001Z,100998.94
2018-09-29T06:11:44.450Z,101001.52
2018-09-29T06:13:20.009Z,101004.81
2018-09-29T06:14:55.416Z,101004.95
2018-09-29T06:16:31.011Z,101001.28
2018-09-29T06:18:06.513Z,100998.84
2018-09-29T06:19:42.030Z,101004.58
2018-09-29T06:21:17.644Z,101004.58
2018-09-29T06:22:53.162Z,101011.27
2018-09-29T06:24:28.681Z,101007.27
2018-09-29T06:26:04.190Z,101007.08
2018-09-29T06:27:39.952Z,101012.80
2018-09-29T06:29:15.528Z,101009.94
2018-09-29T06:30:52.368Z,101006.67
2018-09-29T06:32:27.880Z,101002.87
2018-09-29T06:34:04.524Z,101009.06
2018-09-29T06:35:40.320Z,101001.56
2018-09-29T06:37:16.265Z,100996.66
2018-09-29T06:38:51.823Z,101003.98
2018-09-29T06:40:28.029Z,101000.67
2018-09-29T06:42:03.684Z,101002.31
2018-09-29T06:43:40.191Z,100999.91
2018-09-29T06:45:15.750Z,101004.29
2018-09-29T06:46:51.313Z,101010.23
2018-09-29T06:48:26.812Z,101003.47
2018-09-29T06:50:03.111Z,101007.40
2018-09-29T06:51:40.158Z,101008.51
2018-09-29T06:53:15.973Z,101006.63
2018-09-29T06:54:54.247Z,101001.58
2018-09-29T06:56:32.887Z,101007.28
2018-09-29T06:58:10.665Z,100998.09
2018-09-29T06:59:47.228Z,101002.19
2018-09-29T07:01:23.461Z,101003.37
2018-09-29T07:03:01.086Z,100996.95
2018-09-29T07:04:38.593Z,101001.69
2018-09-29T07:06:15.660Z,101001.20
2018-09-29T07:07:51.994Z,100999.39
2018-09-29T07:09:27.714Z,101008.30
2018-09-29T07:11:03.463Z,101010.34
2018-09-29T07:12:39.092Z,101010.46
2018-09-29T07:14:14.723Z,101009.22
2018-09-29T07:15:50.274Z,101013.93
2018-09-29T07:17:25.864Z,101014.25
2018-09-29T07:19:01.513Z,101021.27
2018-09-29T07:20:37.065Z,101016.21
2018-09-29T07:22:12.680Z,101013.62
2018-09-29T07:23:48.275Z,101012.58
2018-09-29T07:25:23.871Z,101012.23
2018-09-29T07:26:59.459Z,101013.76
2018-09-29T07:28:35.025Z,101015.41
2018-09-29T07:30:10.547Z,101018.36
2018-09-29T07:31:46.138Z,101020.50
2018-09-29T07:33:21.716Z,101021.59
2018-09-29T07:34:57.205Z,101022.77
2018-09-29T07:36:32.699Z,101023.00
2018-09-29T07:38:08.237Z,100945.77
2018-09-29T07:39:43.694Z,101017.71
2018-09-29T07:41:19.542Z,101013.81
2018-09-29T07:42:55.049Z,101019.87
2018-09-29T07:44:30.525Z,101020.88
2018-09-29T07:46:06.030Z,101023.22
2018-09-29T07:47:41.578Z,101020.94
2018-09-29T07:49:17.289Z,101019.48
2018-09-29T07:50:53.208Z,101015.22
2018-09-29T07:52:28.739Z,101013.59
2018-09-29T07:54:04.254Z,101008.91
2018-09-29T07:55:39.823Z,101010.50
2018-09-29T07:57:15.461Z,101016.78
2018-09-29T07:58:50.911Z,101007.44
2018-09-29T08:00:26.442Z,101006.97
2018-09-29T08:02:01.898Z,101003.95
2018-09-29T08:03:37.378Z,101005.06
2018-09-29T08:05:12.825Z,101001.56
2018-09-29T08:06:48.297Z,100992.42
2018-09-29T08:08:23.811Z,100999.92
2018-09-29T08:10:00.302Z,100997.61
2018-09-29T08:11:35.832Z,100996.93
2018-09-29T08:13:11.411Z,100999.87
2018-09-29T08:14:47.202Z,101002.33
2018-09-29T08:16:22.692Z,100993.96
2018-09-29T08:17:58.167Z,100992.67
2018-09-29T08:19:33.634Z,100993.22
2018-09-29T08:21:09.131Z,100994.22
2018-09-29T08:22:44.600Z,100995.23
2018-09-29T08:24:20.179Z,100994.14
2018-09-29T08:25:55.645Z,100999.38
2018-09-29T08:27:31.115Z,101000.02
2018-09-29T08:29:06.575Z,101006.97
2018-09-29T08:30:42.076Z,101007.98
2018-09-29T08:32:17.704Z,101007.76
2018-09-29T08:33:53.149Z,101011.16
2018-09-29T08:35:28.677Z,101005.91
2018-09-29T08:37:04.216Z,101005.82
2018-09-29T08:38:39.659Z,101009.07
2018-09-29T08:40:15.195Z,101006.91
2018-09-29T08:41:50.644Z,101008.22
2018-09-29T08:43:26.173Z,101011.93
2018-09-29T08:45:01.635Z,101005.01
2018-09-29T08:46:37.105Z,101006.17
2018-09-29T08:48:12.559Z,100998.73
2018-09-29T08:49:48.089Z,101002.28
2018-09-29T08:51:23.634Z,100999.85
2018-09-29T08:52:59.103Z,100999.84
2018-09-29T08:54:35.005Z,101004.50
2018-09-29T08:56:10.485Z,101002.69
2018-09-29T08:57:45.974Z,101003.98
2018-09-29T08:59:21.431Z,101006.20
2018-09-29T09:00:56.936Z,101005.09
2018-09-29T09:02:32.414Z,101006.41
2018-09-29T09:04:07.965Z,101003.95
2018-09-29T09:05:43.369Z,101011.04
2018-09-29T09:07:20.156Z,101011.88
2018-09-29T09:08:55.600Z,101007.34
2018-09-29T09:10:31.143Z,101007.59
2018-09-29T09:12:06.688Z,101004.57
2018-09-29T09:13:43.158Z,101012.47
2018-09-29T09:15:18.722Z,101003.18
2018-09-29T09:16:54.240Z,101010.98
2018-09-29T09:18:29.676Z,101008.95
2018-09-29T09:20:05.241Z,101012.21
2018-09-29T09:21:40.774Z,101007.43
2018-09-29T09:23:16.295Z,101006.20
2018-09-29T09:24:51.982Z,101010.22
2018-09-29T09:26:28.541Z,101013.02
2018-09-29T09:28:04.024Z,101004.66
2018-09-29T09:29:40.025Z,101003.65
2018-09-29T09:31:30.191Z,101000.20
2018-09-29T09:33:05.718Z,100998.33
2018-09-29T09:34:41.260Z,100998.52
2018-09-29T09:36:16.784Z,100992.95
2018-09-29T09:37:52.289Z,100991.98
2018-09-29T09:39:27.759Z,100991.05
2018-09-29T09:41:03.244Z,100982.61
2018-09-29T09:42:38.758Z,100986.77
2018-09-29T09:44:14.344Z,100985.53
2018-09-29T09:45:50.079Z,100989.70
2018-09-29T09:47:25.663Z,100988.08
2018-09-29T09:49:01.199Z,100984.67
2018-09-29T09:50:36.658Z,100980.84
2018-09-29T09:52:12.138Z,100986.30
2018-09-29T09:53:47.614Z,100982.86
2018-09-29T09:55:23.117Z,100982.91
2018-09-29T09:56:58.634Z,100984.81
2018-09-29T09:58:34.243Z,100975.76
2018-09-29T10:00:09.873Z,100978.12
2018-09-29T10:01:55.046Z,100976.05
2018-09-29T10:03:32.874Z,100971.00
2018-09-29T10:05:11.649Z,100961.80
2018-09-29T10:06:48.106Z,100961.30
2018-09-29T10:08:23.564Z,100965.76
2018-09-29T10:09:59.327Z,100963.94
2018-09-29T10:11:34.939Z,100954.73
2018-09-29T10:13:20.944Z,100956.34
2018-09-29T10:14:57.307Z,100946.73
2018-09-29T10:16:35.310Z,100942.77
2018-09-29T10:18:10.789Z,100939.46
2018-09-29T10:19:47.043Z,100892.27
2018-09-29T10:21:24.039Z,100945.49
2018-09-29T10:22:59.595Z,100933.34
2018-09-29T10:24:35.322Z,100934.11
2018-09-29T10:26:10.770Z,100936.27
2018-09-29T10:27:47.133Z,100934.55
2018-09-29T10:29:22.700Z,100933.44
2018-09-29T10:30:58.198Z,100930.69
2018-09-29T10:32:35.123Z,100928.70
2018-09-29T10:34:10.811Z,100932.67
2018-09-29T10:35:46.323Z,100933.95
2018-09-29T10:37:21.807Z,100933.24
2018-09-29T10:39:09.890Z,100927.55
2018-09-29T10:40:46.860Z,100923.55
2018-09-29T10:42:22.537Z,100922.81
2018-09-29T10:43:58.730Z,100922.23
2018-09-29T10:45:35.160Z,100926.92
2018-09-29T10:47:10.862Z,100919.70
2018-09-29T10:48:47.023Z,100921.16
2018-09-29T10:50:22.574Z,100908.62
2018-09-29T10:52:00.139Z,100908.89
2018-09-29T10:53:35.954Z,100912.20
2018-09-29T10:55:11.585Z,100912.97
2018-09-29T10:56:48.759Z,100915.78
2018-09-29T10:58:26.421Z,100915.09
2018-09-29T11:00:02.013Z,100913.28
2018-09-29T11:01:37.585Z,100903.53
2018-09-29T11:03:13.188Z,100899.59
2018-09-29T11:04:48.794Z,100891.27
2018-09-29T11:06:25.653Z,100896.78
2018-09-29T11:08:04.912Z,100893.02
2018-09-29T11:09:40.427Z,100896.75
2018-09-29T11:11:16.032Z,100893.69
2018-09-29T11:12:51.610Z,100893.06
2018-09-29T11:14:27.245Z,100893.00
2018-09-29T11:16:02.792Z,100883.36
2018-09-29T11:17:38.391Z,100887.09
2018-09-29T11:19:13.939Z,100881.83
2018-09-29T11:20:49.644Z,100876.39
2018-09-29T11:22:25.181Z,100878.84
2018-09-29T11:24:00.851Z,100880.75
2018-09-29T11:25:36.504Z,100877.37
2018-09-29T11:27:12.148Z,100869.91
2018-09-29T11:28:48.438Z,100870.22
2018-09-29T11:30:23.963Z,100862.33
2018-09-29T11:31:59.850Z,100864.39
2018-09-29T11:33:35.414Z,100870.73
2018-09-29T11:35:11.161Z,100867.24
2018-09-29T11:36:46.699Z,100857.41
2018-09-29T11:38:23.653Z,100856.25
2018-09-29T11:39:59.187Z,100848.86
2018-09-29T11:41:34.754Z,100842.91
2018-09-29T11:43:11.752Z,100849.74
2018-09-29T11:44:47.390Z,100841.69
2018-09-29T11:46:23.797Z,100840.02
2018-09-29T11:47:59.352Z,100840.48
2018-09-29T11:49:34.842Z,100842.14
2018-09-29T11:51:11.198Z,100833.10
2018-09-29T11:52:46.811Z,100833.36
2018-09-29T11:54:22.555Z,100836.29
2018-09-29T11:55:59.519Z,100832.46
2018-09-29T11:57:35.055Z,100834.02
2018-09-29T11:59:10.566Z,100831.72
2018-09-29T12:00:46.210Z,100832.67
2018-09-29T12:02:24.958Z,100829.20
2018-09-29T12:04:00.684Z,100827.06
2018-09-29T12:05:36.288Z,100820.95
2018-09-29T12:07:11.888Z,100823.01
2018-09-29T12:08:47.446Z,100826.59
2018-09-29T12:10:23.081Z,100830.84
2018-09-29T12:11:58.606Z,100820.16
2018-09-29T12:13:34.098Z,100826.77
2018-09-29T12:15:09.598Z,100827.58
2018-09-29T12:16:45.117Z,100816.01
2018-09-29T12:18:20.771Z,100814.73
2018-09-29T12:19:57.391Z,100813.84
2018-09-29T12:21:32.882Z,100812.35
2018-09-29T12:23:08.357Z,100812.42
2018-09-29T12:24:43.799Z,100807.91
2018-09-29T12:26:19.535Z,100807.70
2018-09-29T12:27:55.149Z,100807.16
2018-09-29T12:31:21.007Z,100803.30
2018-09-29T12:32:56.549Z,100797.79
2018-09-29T12:34:32.223Z,100796.20
2018-09-29T12:36:08.172Z,100791.77
2018-09-29T12:37:43.718Z,100792.62
2018-09-29T12:39:19.166Z,100783.33
2018-09-29T12:41:12.555Z,100785.58
2018-09-29T12:42:48.014Z,100783.50
2018-09-29T12:44:23.711Z,100780.27
2018-09-29T12:45:59.126Z,100778.30
2018-09-29T12:47:34.607Z,100779.68
2018-09-29T12:49:10.110Z,100774.44
2018-09-29T12:50:45.955Z,100773.98
2018-09-29T12:52:21.488Z,100772.06
2018-09-29T12:53:57.390Z,100772.20
2018-09-29T12:55:32.907Z,100769.01
2018-09-29T12:57:08.379Z,100767.67
2018-09-29T12:58:43.901Z,100762.35
2018-09-29T13:00:19.367Z,100759.04
2018-09-29T13:01:54.860Z,100761.24
2018-09-29T13:03:30.327Z,100758.98
2018-09-29T13:05:05.969Z,100754.62
2018-09-29T13:06:41.456Z,100755.94
2018-09-29T13:08:19.523Z,100750.41
2018-09-29T13:09:58.106Z,100755.45
2018-09-29T13:11:35.022Z,100753.95
2018-09-29T13:13:10.508Z,100749.55
2018-09-29T13:14:46.017Z,100749.16
2018-09-29T13:16:21.600Z,100743.39
2018-09-29T13:17:57.130Z,100744.11
2018-09-29T13:19:32.619Z,100740.91
2018-09-29T13:21:08.071Z,100742.75
2018-09-29T13:22:43.702Z,100744.18
2018-09-29T13:24:19.100Z,100743.13
2018-09-29T13:25:54.563Z,100733.70
2018-09-29T13:27:30.035Z,100734.38
2018-09-29T13:29:05.503Z,100744.95
2018-09-29T13:30:40.997Z,100731.08
2018-09-29T13:32:16.475Z,100728.59
2018-09-29T13:33:51.976Z,100734.72
2018-09-29T13:35:27.645Z,100732.27
2018-09-29T13:37:03.131Z,100721.98
2018-09-29T13:38:38.605Z,100717.88
2018-09-29T13:40:14.138Z,100715.79
2018-09-29T13:41:49.612Z,100716.73
2018-09-29T13:43:25.131Z,100714.86
2018-09-29T13:45:00.590Z,100712.63
2018-09-29T13:46:36.154Z,100716.62
2018-09-29T13:48:11.673Z,100716.95
2018-09-29T13:49:47.128Z,100710.69
2018-09-29T13:51:22.949Z,100708.20
2018-09-29T13:52:58.431Z,100713.45
2018-09-29T13:54:34.820Z,100716.31
2018-09-29T13:56:10.394Z,100710.42
2018-09-29T13:57:45.931Z,100703.76
2018-09-29T13:59:21.468Z,100705.59
2018-09-29T14:00:57.289Z,100695.22
2018-09-29T14:02:32.804Z,100695.26
2018-09-29T14:04:08.980Z,100691.41
2018-09-29T14:05:44.436Z,100692.08
2018-09-29T14:07:20.041Z,100690.77
2018-09-29T14:08:55.518Z,100681.48
2018-09-29T14:10:31.217Z,100675.13
2018-09-29T14:12:07.883Z,100683.51
2018-09-29T14:13:43.408Z,100681.88
2018-09-29T14:15:18.858Z,100605.49
2018-09-29T14:16:54.332Z,100670.05
2018-09-29T14:18:29.779Z,100671.21
2018-09-29T14:20:06.768Z,100670.27
2018-09-29T14:21:42.299Z,100669.81
2018-09-29T14:23:17.789Z,100666.21
2018-09-29T14:24:53.242Z,100665.23
2018-09-29T14:26:28.784Z,100664.81
2018-09-29T14:28:04.287Z,100660.66
2018-09-29T14:29:40.116Z,100664.89
2018-09-29T14:31:15.585Z,100658.92
2018-09-29T14:32:51.117Z,100658.41
2018-09-29T14:34:26.613Z,100656.44
2018-09-29T14:36:02.131Z,100661.17
2018-09-29T14:37:37.713Z,100657.84
2018-09-29T14:39:13.446Z,100651.36
2018-09-29T14:40:48.968Z,100649.98
2018-09-29T14:42:26.536Z,100646.83
2018-09-29T14:44:02.305Z,100638.42
2018-09-29T14:45:37.954Z,100637.66
2018-09-29T14:47:13.480Z,100638.13
2018-09-29T14:48:48.945Z,100631.38
2018-09-29T14:50:24.488Z,100637.05
2018-09-29T14:52:00.028Z,100632.83
2018-09-29T14:53:35.541Z,100629.20
2018-09-29T14:55:10.999Z,100629.20
2018-09-29T14:56:46.646Z,100626.22
2018-09-29T14:58:22.156Z,100620.02
2018-09-29T14:59:57.730Z,100620.33
2018-09-29T15:01:33.258Z,100618.74
2018-09-29T15:03:09.353Z,100617.84
2018-09-29T15:04:44.836Z,100617.47
2018-09-29T15:06:20.476Z,100619.42
2018-09-29T15:07:56.015Z,100617.03
2018-09-29T15:09:31.671Z,100618.36
2018-09-29T15:11:08.050Z,100607.64
2018-09-29T15:12:43.748Z,100608.37
2018-09-29T15:14:19.838Z,100604.48
2018-09-29T15:15:55.398Z,100604.83
2018-09-29T15:17:31.352Z,100606.05
2018-09-29T15:19:06.965Z,100599.95
2018-09-29T15:20:42.500Z,100598.89
2018-09-29T15:22:18.135Z,100593.47
2018-09-29T15:23:53.676Z,100593.02
2018-09-29T15:25:30.301Z,100597.56
2018-09-29T15:27:06.086Z,100594.47
2018-09-29T15:28:41.740Z,100600.21
2018-09-29T15:30:17.309Z,100601.33
2018-09-29T15:31:52.833Z,100594.31
2018-09-29T15:33:28.485Z,100595.45
2018-09-29T15:35:03.989Z,100593.53
2018-09-29T15:36:39.848Z,100594.08
2018-09-29T15:38:15.347Z,100594.06
2018-09-29T15:39:50.922Z,100594.34
2018-09-29T15:41:26.464Z,100584.53
2018-09-29T15:43:02.097Z,100584.53
2018-09-29T15:44:38.494Z,100582.31
2018-09-29T15:46:17.908Z,100574.66
2018-09-29T15:47:54.460Z,100577.18
2018-09-29T15:49:30.117Z,100569.10
2018-09-29T15:51:05.921Z,100570.01
2018-09-29T15:52:41.638Z,100570.56
2018-09-29T15:54:17.520Z,100570.89
2018-09-29T15:55:53.188Z,100569.10
2018-09-29T15:57:28.826Z,100568.05
2018-09-29T15:59:04.424Z,100571.80
2018-09-29T16:00:39.963Z,100574.77
2018-09-29T16:02:15.560Z,100573.87
2018-09-29T16:03:51.196Z,100571.77
2018-09-29T16:05:26.916Z,100573.27
2018-09-29T16:07:02.626Z,100572.14
2018-09-29T16:08:38.809Z,100594.70
2018-09-29T16:10:15.426Z,100571.95
2018-09-29T16:11:51.790Z,100572.53
2018-09-29T16:13:31.342Z,100567.83
2018-09-29T16:15:09.844Z,100569.27
2018-09-29T16:16:45.456Z,100568.79
2018-09-29T16:18:21.007Z,100572.01
2018-09-29T16:19:56.485Z,100564.86
2018-09-29T16:21:33.605Z,100567.89
2018-09-29T16:23:09.128Z,100565.47
2018-09-29T16:24:45.154Z,100566.42
2018-09-29T16:26:21.177Z,100560.95
2018-09-29T16:27:58.367Z,100556.99
2018-09-29T16:29:34.507Z,100562.37
2018-09-29T16:31:10.060Z,100557.61
2018-09-29T16:32:45.610Z,100568.02
2018-09-29T16:34:21.188Z,100560.13
2018-09-29T16:35:56.908Z,100558.18
2018-09-29T16:37:32.658Z,100578.05
2018-09-29T16:39:14.833Z,100561.12
2018-09-29T16:40:50.596Z,100559.59
2018-09-29T16:42:38.586Z,100561.97
2018-09-29T16:44:17.677Z,100559.70
2018-09-29T16:45:54.315Z,100560.03
2018-09-29T16:47:30.149Z,100558.36
2018-09-29T16:49:07.756Z,100562.57
2018-09-29T16:50:45.667Z,100319.75
2018-09-29T16:52:21.882Z,100556.66
2018-09-29T16:54:00.288Z,100556.38
2018-09-29T16:55:37.496Z,100554.09
2018-09-29T16:57:13.601Z,100558.23
2018-09-29T16:58:49.316Z,100557.02
2018-09-29T17:00:25.309Z,100558.33
2018-09-29T17:02:03.350Z,100560.39
2018-09-29T17:03:42.161Z,100561.03
2018-09-29T17:05:21.600Z,100556.97
2018-09-29T17:06:57.153Z,100561.86
2018-09-29T17:08:32.773Z,100561.47
2018-09-29T17:10:08.687Z,100561.66
2018-09-29T17:11:48.850Z,100565.31
2018-09-29T17:13:24.483Z,100562.56
2018-09-29T17:15:06.853Z,100561.39
2018-09-29T17:16:45.375Z,100563.00
2018-09-29T17:18:22.283Z,100560.47
2018-09-29T17:19:57.903Z,100563.53
2018-09-29T17:21:33.613Z,100569.42
2018-09-29T17:23:09.214Z,100566.63
2018-09-29T17:24:44.756Z,100570.88
2018-09-29T17:26:20.277Z,100570.58
2018-09-29T17:27:56.696Z,100567.78
2018-09-29T17:29:33.310Z,100568.91
2018-09-29T17:31:08.926Z,100568.95
2018-09-29T17:32:45.484Z,100566.84
2018-09-29T17:34:21.036Z,100576.08
2018-09-29T17:36:06.370Z,100572.86
2018-09-29T17:37:46.389Z,100570.95
2018-09-29T17:39:22.062Z,100577.88
2018-09-29T17:40:57.692Z,100574.77
2018-09-29T17:42:33.256Z,100574.77
2018-09-29T17:44:08.906Z,100575.78
2018-09-29T17:45:44.417Z,100573.20
2018-09-29T17:47:20.198Z,100576.98
2018-09-29T17:48:55.993Z,100575.02
2018-09-29T17:50:31.728Z,100572.15
2018-09-29T17:52:07.246Z,100579.66
2018-09-29T17:53:42.791Z,100573.53
2018-09-29T17:55:18.277Z,100580.14
2018-09-29T17:56:53.735Z,100582.14
2018-09-29T17:58:30.130Z,100576.49
2018-09-29T18:00:05.636Z,100582.88
2018-09-29T18:01:41.660Z,100577.84
2018-09-29T18:03:17.138Z,100583.19
2018-09-29T18:04:52.682Z,100583.55
2018-09-29T18:06:28.579Z,100584.20
2018-09-29T18:08:04.177Z,100580.37
2018-09-29T18:09:39.825Z,100578.55
2018-09-29T18:11:15.840Z,100578.69
2018-09-29T18:12:51.513Z,100580.56
2018-09-29T18:14:27.471Z,100582.44
2018-09-29T18:16:03.462Z,100584.36